createdAt,value
2022-09-25T00:01:30.920Z,8.40
2022-09-25T00:03:59.756Z,8.40
2022-09-25T00:06:29.389Z,8.42
2022-09-25T00:09:02.030Z,8.40
2022-09-25T00:11:33.076Z,8.40
2022-09-25T00:14:02.673Z,8.30
2022-09-25T00:16:33.176Z,8.30
2022-09-25T00:19:20.389Z,8.30
2022-09-25T00:21:53.868Z,8.30
2022-09-25T00:24:23.619Z,8.28
2022-09-25T00:26:51.423Z,8.20
2022-09-25T00:29:20.794Z,8.20
2022-09-25T00:31:48.926Z,8.20
2022-09-25T00:34:16.772Z,8.10
2022-09-25T00:36:44.578Z,8.00
2022-09-25T00:39:14.110Z,7.96
2022-09-25T00:41:42.233Z,7.90
2022-09-25T00:44:53.608Z,7.86
2022-09-25T00:47:52.727Z,7.80
2022-09-25T00:50:49.586Z,7.80
2022-09-25T00:53:29.286Z,7.70
2022-09-25T00:56:00.193Z,7.70
2022-09-25T00:58:32.265Z,7.60
2022-09-25T01:01:00.988Z,7.60
2022-09-25T01:03:29.530Z,7.58
2022-09-25T01:06:00.480Z,7.56
2022-09-25T01:08:31.516Z,7.50
2022-09-25T01:10:59.579Z,7.50
2022-09-25T01:13:29.945Z,7.50
2022-09-25T01:16:08.306Z,7.48
2022-09-25T01:19:04.310Z,7.40
2022-09-25T01:22:21.548Z,7.30
2022-09-25T01:25:28.940Z,7.30
2022-09-25T01:28:32.021Z,7.30
2022-09-25T01:31:29.127Z,7.30
2022-09-25T01:34:07.494Z,7.20
2022-09-25T01:36:47.313Z,7.20
2022-09-25T01:39:30.090Z,7.20
2022-09-25T01:42:19.296Z,7.20
2022-09-25T01:44:58.528Z,7.12
2022-09-25T01:47:38.613Z,7.10
2022-09-25T01:50:21.306Z,7.10
2022-09-25T01:52:58.105Z,7.10
2022-09-25T01:55:44.123Z,7.00
2022-09-25T01:58:23.338Z,7.00
2022-09-25T02:01:01.228Z,7.00
2022-09-25T02:03:57.661Z,7.02
2022-09-25T02:06:26.704Z,7.10
2022-09-25T02:09:03.358Z,7.02
2022-09-25T02:11:48.255Z,7.00
2022-09-25T02:14:36.766Z,7.00
2022-09-25T02:17:12.768Z,6.96
2022-09-25T02:19:59.120Z,6.90
2022-09-25T02:22:36.052Z,6.90
2022-09-25T02:25:31.502Z,6.94
2022-09-25T02:27:59.840Z,6.94
2022-09-25T02:30:27.578Z,6.92
2022-09-25T02:32:59.449Z,7.00
2022-09-25T02:35:27.848Z,7.00
2022-09-25T02:37:57.582Z,7.00
2022-09-25T02:40:38.229Z,7.00
2022-09-25T02:43:41.738Z,7.00
2022-09-25T02:46:47.718Z,7.00
2022-09-25T02:49:46.438Z,6.90
2022-09-25T02:52:36.855Z,6.90
2022-09-25T02:55:26.199Z,6.90
2022-09-25T02:58:02.758Z,6.90
2022-09-25T03:00:35.200Z,6.80
2022-09-25T03:03:09.677Z,6.66
2022-09-25T03:05:38.889Z,6.60
2022-09-25T03:08:26.388Z,6.58
2022-09-25T03:10:54.395Z,6.50
2022-09-25T03:13:27.834Z,6.50
2022-09-25T03:16:01.632Z,6.40
2022-09-25T03:18:31.321Z,6.42
2022-09-25T03:20:59.461Z,6.40
2022-09-25T03:23:27.149Z,6.30
2022-09-25T03:25:56.639Z,6.30
2022-09-25T03:28:26.389Z,6.22
2022-09-25T03:31:10.629Z,6.30
2022-09-25T03:33:42.124Z,6.32
2022-09-25T03:36:21.626Z,6.40
2022-09-25T03:38:57.833Z,6.50
2022-09-25T03:41:32.137Z,6.40
2022-09-25T03:44:01.302Z,6.40
2022-09-25T03:46:33.843Z,6.40
2022-09-25T03:49:02.858Z,6.38
2022-09-25T03:51:33.759Z,6.38
2022-09-25T03:54:04.412Z,6.40
2022-09-25T03:56:32.815Z,6.40
2022-09-25T03:59:02.257Z,6.40
2022-09-25T04:01:30.418Z,6.40
2022-09-25T04:04:00.183Z,6.38
2022-09-25T04:06:27.904Z,6.38
2022-09-25T04:08:55.698Z,6.30
2022-09-25T04:11:25.416Z,6.38
2022-09-25T04:13:53.230Z,6.32
2022-09-25T04:16:21.715Z,6.30
2022-09-25T04:18:50.785Z,6.30
2022-09-25T04:21:18.849Z,6.30
2022-09-25T04:24:05.463Z,6.20
2022-09-25T04:26:34.936Z,6.20
2022-09-25T04:29:03.702Z,6.20
2022-09-25T04:31:32.585Z,6.16
2022-09-25T04:34:01.100Z,6.18
2022-09-25T04:36:28.885Z,6.20
2022-09-25T04:38:57.939Z,6.24
2022-09-25T04:41:25.885Z,6.22
2022-09-25T04:43:55.666Z,6.20
2022-09-25T04:46:23.446Z,6.20
2022-09-25T04:48:51.705Z,6.10
2022-09-25T04:51:19.455Z,6.10
2022-09-25T04:53:47.607Z,6.10
2022-09-25T04:56:16.805Z,6.02
2022-09-25T04:58:49.976Z,6.00
2022-09-25T05:01:20.646Z,5.98
2022-09-25T05:03:53.562Z,5.90
2022-09-25T05:06:23.168Z,5.70
2022-09-25T05:08:51.135Z,5.60
2022-09-25T05:11:19.421Z,5.60
2022-09-25T05:13:52.867Z,5.60
2022-09-25T05:16:21.338Z,5.60
2022-09-25T05:18:49.372Z,5.70
2022-09-25T05:21:17.439Z,5.70
2022-09-25T05:23:45.258Z,5.70
2022-09-25T05:26:13.273Z,5.60
2022-09-25T05:28:40.930Z,5.50
2022-09-25T05:31:09.991Z,5.50
2022-09-25T05:33:37.903Z,5.60
2022-09-25T05:36:09.376Z,5.60
2022-09-25T05:38:40.536Z,5.60
2022-09-25T05:41:10.622Z,5.70
2022-09-25T05:43:46.843Z,5.70
2022-09-25T05:46:16.323Z,5.60
2022-09-25T05:48:45.159Z,5.50
2022-09-25T05:51:12.953Z,5.40
2022-09-25T05:53:41.196Z,5.40
2022-09-25T05:56:09.191Z,5.46
2022-09-25T05:58:37.281Z,5.40
2022-09-25T06:01:07.062Z,5.40
2022-09-25T06:03:36.219Z,5.40
2022-09-25T06:06:05.539Z,5.40
2022-09-25T06:08:35.707Z,5.48
2022-09-25T06:11:06.948Z,5.40
2022-09-25T06:13:38.183Z,5.40
2022-09-25T06:16:18.631Z,5.30
2022-09-25T06:18:47.651Z,5.30
2022-09-25T06:21:16.315Z,5.30
2022-09-25T06:23:45.383Z,5.26
2022-09-25T06:26:14.177Z,5.20
2022-09-25T06:28:41.946Z,5.26
2022-09-25T06:31:10.501Z,5.30
2022-09-25T06:33:38.590Z,5.28
2022-09-25T06:36:08.002Z,5.20
2022-09-25T06:38:35.764Z,5.24
2022-09-25T06:41:03.624Z,5.30
2022-09-25T06:43:31.610Z,5.40
2022-09-25T06:46:05.837Z,5.40
2022-09-25T06:48:33.688Z,5.50
2022-09-25T06:51:02.003Z,5.50
2022-09-25T06:53:29.863Z,5.60
2022-09-25T06:56:00.320Z,5.60
2022-09-25T06:58:30.694Z,5.64
2022-09-25T07:00:59.502Z,5.70
2022-09-25T07:03:46.665Z,5.60
2022-09-25T07:06:22.306Z,5.50
2022-09-25T07:08:52.927Z,5.50
2022-09-25T07:11:26.631Z,5.50
2022-09-25T07:13:55.303Z,5.50
2022-09-25T07:16:30.410Z,5.62
2022-09-25T07:19:00.722Z,5.70
2022-09-25T07:21:32.281Z,5.70
2022-09-25T07:24:05.294Z,5.70
2022-09-25T07:26:34.738Z,5.70
2022-09-25T07:29:08.881Z,5.80
2022-09-25T07:31:38.361Z,5.90
2022-09-25T07:34:09.592Z,6.00
2022-09-25T07:36:41.131Z,6.10
2022-09-25T07:39:11.011Z,6.20
2022-09-25T07:41:42.889Z,6.20
2022-09-25T07:44:27.746Z,6.22
2022-09-25T07:47:03.756Z,6.30
2022-09-25T07:49:31.650Z,6.30
2022-09-25T07:51:59.780Z,6.40
2022-09-25T07:54:27.770Z,6.40
2022-09-25T07:56:55.813Z,6.40
2022-09-25T07:59:23.708Z,6.40
2022-09-25T08:01:54.185Z,6.40
2022-09-25T08:04:22.204Z,6.30
2022-09-25T08:06:50.373Z,6.30
2022-09-25T08:09:18.397Z,6.40
2022-09-25T08:11:46.422Z,6.50
2022-09-25T08:14:17.769Z,6.60
2022-09-25T08:16:45.645Z,6.70
2022-09-25T08:19:19.024Z,6.60
2022-09-25T08:21:47.491Z,6.60
2022-09-25T08:24:15.490Z,6.70
2022-09-25T08:26:44.138Z,6.80
2022-09-25T08:29:12.353Z,6.80
2022-09-25T08:31:40.865Z,6.80
2022-09-25T08:34:36.348Z,6.80
2022-09-25T08:36:58.664Z,6.80
2022-09-25T08:39:26.508Z,6.90
2022-09-25T08:41:56.392Z,7.10
2022-09-25T08:45:02.462Z,7.30
2022-09-25T08:48:04.862Z,7.50
2022-09-25T08:50:33.444Z,7.70
2022-09-25T08:53:19.773Z,7.80
2022-09-25T08:56:07.907Z,7.92
2022-09-25T08:58:43.516Z,8.02
2022-09-25T09:01:18.536Z,8.20
2022-09-25T09:04:05.940Z,8.20
2022-09-25T09:06:37.507Z,8.40
2022-09-25T09:09:19.190Z,8.50
2022-09-25T09:12:02.096Z,8.60
2022-09-25T09:14:42.653Z,8.70
2022-09-25T09:17:27.201Z,8.80
2022-09-25T09:20:15.706Z,9.00
2022-09-25T09:22:53.313Z,9.02
2022-09-25T09:25:53.617Z,9.10
2022-09-25T09:29:17.720Z,9.30
2022-09-25T09:32:11.771Z,9.40
2022-09-25T09:35:06.319Z,9.50
2022-09-25T09:38:32.103Z,9.60
2022-09-25T09:41:20.402Z,9.70
2022-09-25T09:44:03.370Z,9.76
2022-09-25T09:46:48.800Z,9.86
2022-09-25T09:49:41.800Z,10.10
2022-09-25T09:52:19.798Z,10.30
2022-09-25T09:55:23.093Z,10.42
2022-09-25T09:58:00.082Z,10.60
2022-09-25T10:00:34.815Z,10.56
2022-09-25T10:03:19.573Z,10.60
2022-09-25T10:05:51.255Z,10.80
2022-09-25T10:08:19.578Z,11.00
2022-09-25T10:10:55.929Z,11.20
2022-09-25T10:13:36.165Z,11.20
2022-09-25T10:16:28.645Z,11.40
2022-09-25T10:19:11.757Z,11.70
2022-09-25T10:22:05.338Z,11.96
2022-09-25T10:25:05.761Z,12.30
2022-09-25T10:27:36.851Z,12.50
2022-09-25T10:30:11.071Z,12.70
2022-09-25T10:33:04.098Z,12.90
2022-09-25T10:35:49.174Z,13.00
2022-09-25T10:38:32.765Z,13.20
2022-09-25T10:41:13.307Z,13.28
2022-09-25T10:44:03.248Z,13.40
2022-09-25T10:46:54.623Z,13.50
2022-09-25T10:49:50.331Z,13.60
2022-09-25T10:52:22.390Z,13.80
2022-09-25T10:54:52.735Z,13.98
2022-09-25T10:57:38.750Z,14.20
2022-09-25T11:00:27.992Z,14.40
2022-09-25T11:03:05.766Z,14.60
2022-09-25T11:05:37.251Z,14.80
2022-09-25T11:08:07.944Z,14.90
2022-09-25T11:10:51.100Z,15.10
2022-09-25T11:13:25.417Z,15.22
2022-09-25T11:15:59.889Z,15.40
2022-09-25T11:19:08.103Z,15.50
2022-09-25T11:21:48.384Z,15.70
2022-09-25T11:24:44.673Z,15.72
2022-09-25T11:27:33.519Z,15.80
2022-09-25T11:30:07.025Z,16.00
2022-09-25T11:32:52.890Z,16.20
2022-09-25T11:35:58.144Z,16.30
2022-09-25T11:39:15.246Z,16.40
2022-09-25T11:42:05.866Z,16.50
2022-09-25T11:44:59.253Z,16.60
2022-09-25T11:47:40.957Z,16.50
2022-09-25T11:50:18.426Z,16.60
2022-09-25T11:53:14.313Z,16.80
2022-09-25T11:56:10.771Z,16.90
2022-09-25T11:59:19.214Z,16.90
2022-09-25T12:02:01.556Z,16.90
2022-09-25T12:05:27.009Z,17.00
2022-09-25T12:08:16.629Z,16.90
2022-09-25T12:11:22.662Z,17.00
2022-09-25T12:14:29.774Z,17.10
2022-09-25T12:17:37.657Z,17.20
2022-09-25T12:20:57.768Z,16.90
2022-09-25T12:23:35.895Z,16.48
2022-09-25T12:26:24.791Z,16.30
2022-09-25T12:28:55.091Z,16.30
2022-09-25T12:31:53.181Z,16.12
2022-09-25T12:34:37.062Z,16.20
2022-09-25T12:37:45.378Z,16.10
2022-09-25T12:40:22.398Z,16.10
2022-09-25T12:43:03.507Z,16.16
2022-09-25T12:45:39.841Z,16.10
2022-09-25T12:48:24.469Z,16.14
2022-09-25T12:51:40.466Z,16.20
2022-09-25T12:54:15.705Z,16.40
2022-09-25T12:56:58.247Z,16.30
2022-09-25T12:59:41.508Z,16.20
2022-09-25T13:02:16.969Z,16.00
2022-09-25T13:05:21.993Z,16.00
2022-09-25T13:08:12.816Z,15.90
2022-09-25T13:10:48.865Z,15.80
2022-09-25T13:13:26.069Z,15.70
2022-09-25T13:16:01.876Z,15.70
2022-09-25T13:18:34.048Z,15.70
2022-09-25T13:21:29.407Z,15.60
2022-09-25T13:23:59.549Z,15.60
2022-09-25T13:26:28.345Z,15.50
2022-09-25T13:29:07.941Z,15.46
2022-09-25T13:31:42.022Z,15.40
2022-09-25T13:34:17.689Z,15.40
2022-09-25T13:36:57.063Z,15.30
2022-09-25T13:39:49.770Z,15.30
2022-09-25T13:42:39.423Z,15.20
2022-09-25T13:45:28.326Z,15.20
2022-09-25T13:48:07.242Z,15.20
2022-09-25T13:50:47.484Z,15.26
2022-09-25T13:53:27.096Z,15.24
2022-09-25T13:56:18.899Z,15.20
2022-09-25T13:59:20.271Z,15.20
2022-09-25T14:01:56.287Z,15.20
2022-09-25T14:04:34.895Z,15.20
2022-09-25T14:07:23.300Z,15.14
2022-09-25T14:09:56.932Z,15.10
2022-09-25T14:12:40.831Z,15.10
2022-09-25T14:15:33.609Z,15.08
2022-09-25T14:18:09.559Z,15.00
2022-09-25T14:20:45.014Z,14.90
2022-09-25T14:23:27.386Z,14.82
2022-09-25T14:26:17.576Z,14.80
2022-09-25T14:28:48.961Z,14.70
2022-09-25T14:31:37.728Z,14.60
2022-09-25T14:34:46.208Z,14.60
2022-09-25T14:37:39.600Z,14.50
2022-09-25T14:40:24.437Z,14.50
2022-09-25T14:43:19.859Z,14.40
2022-09-25T14:46:07.627Z,14.40
2022-09-25T14:48:46.069Z,14.40
2022-09-25T14:51:26.660Z,14.36
2022-09-25T14:54:01.234Z,14.30
2022-09-25T14:56:34.348Z,14.30
2022-09-25T14:59:13.636Z,14.30
2022-09-25T15:01:50.480Z,14.30
2022-09-25T15:04:32.240Z,14.30
2022-09-25T15:07:15.070Z,14.30
2022-09-25T15:09:49.333Z,14.30
2022-09-25T15:12:34.062Z,14.30
2022-09-25T15:15:13.143Z,14.30
2022-09-25T15:17:59.766Z,14.30
2022-09-25T15:20:32.797Z,14.30
2022-09-25T15:23:14.021Z,14.26
2022-09-25T15:25:51.570Z,14.28
2022-09-25T15:28:25.924Z,14.30
2022-09-25T15:31:00.042Z,14.24
2022-09-25T15:33:34.103Z,14.20
2022-09-25T15:36:16.857Z,14.20
2022-09-25T15:38:53.498Z,14.20
2022-09-25T15:41:23.851Z,14.20
2022-09-25T15:43:52.055Z,14.20
2022-09-25T15:46:35.897Z,14.10
2022-09-25T15:49:05.511Z,14.10
2022-09-25T15:51:36.307Z,14.10
2022-09-25T15:54:43.535Z,14.10
2022-09-25T15:57:24.880Z,14.10
2022-09-25T16:00:12.548Z,14.10
2022-09-25T16:03:18.888Z,14.10
2022-09-25T16:05:50.707Z,14.06
2022-09-25T16:08:24.697Z,14.00
2022-09-25T16:11:26.238Z,14.00
2022-09-25T16:14:22.401Z,14.00
2022-09-25T16:16:51.801Z,14.00
2022-09-25T16:19:27.468Z,14.00
2022-09-25T16:21:56.396Z,14.00
2022-09-25T16:24:29.163Z,13.90
2022-09-25T16:27:01.315Z,13.90
2022-09-25T16:29:43.387Z,13.90
2022-09-25T16:32:18.807Z,13.90
2022-09-25T16:35:01.934Z,13.88
2022-09-25T16:37:34.795Z,13.80
2022-09-25T16:40:17.887Z,13.80
2022-09-25T16:42:48.433Z,13.78
2022-09-25T16:45:27.817Z,13.70
2022-09-25T16:48:00.297Z,13.70
2022-09-25T16:50:36.615Z,13.70
2022-09-25T16:53:17.986Z,13.70
2022-09-25T16:55:49.255Z,13.70
2022-09-25T16:58:17.062Z,13.70
2022-09-25T17:00:45.070Z,13.70
2022-09-25T17:03:13.761Z,13.70
2022-09-25T17:05:41.836Z,13.70
2022-09-25T17:08:25.355Z,13.68
2022-09-25T17:10:53.508Z,13.60
2022-09-25T17:13:28.798Z,13.60
2022-09-25T17:15:57.598Z,13.60
2022-09-25T17:18:27.185Z,13.50
2022-09-25T17:20:57.505Z,13.50
2022-09-25T17:23:29.384Z,13.58
2022-09-25T17:26:23.750Z,13.50
2022-09-25T17:28:51.990Z,13.50
2022-09-25T17:31:22.196Z,13.50
2022-09-25T17:33:50.285Z,13.50
2022-09-25T17:36:19.228Z,13.50
2022-09-25T17:38:47.153Z,13.50
2022-09-25T17:41:34.104Z,13.50
2022-09-25T17:44:03.624Z,13.40
2022-09-25T17:46:36.654Z,13.40
2022-09-25T17:49:08.494Z,13.40
2022-09-25T17:51:38.130Z,13.40
2022-09-25T17:54:06.663Z,13.40
2022-09-25T17:56:35.034Z,13.40
2022-09-25T17:59:04.091Z,13.40
2022-09-25T18:01:39.115Z,13.40
2022-09-25T18:04:21.088Z,13.40
2022-09-25T18:06:50.665Z,13.40
2022-09-25T18:09:18.998Z,13.40
2022-09-25T18:11:47.420Z,13.40
2022-09-25T18:14:16.218Z,13.40
2022-09-25T18:16:47.045Z,13.40
2022-09-25T18:19:37.417Z,13.40
2022-09-25T18:22:18.855Z,13.36
2022-09-25T18:24:52.902Z,13.40
2022-09-25T18:27:21.108Z,13.40
2022-09-25T18:29:49.535Z,13.40
2022-09-25T18:32:18.053Z,13.40
2022-09-25T18:34:45.946Z,13.40
2022-09-25T18:37:13.998Z,13.40
2022-09-25T18:39:44.830Z,13.40
2022-09-25T18:42:13.653Z,13.30
2022-09-25T18:44:42.873Z,13.20
2022-09-25T18:47:14.944Z,13.28
2022-09-25T18:49:43.706Z,13.30
2022-09-25T18:52:12.471Z,13.22
2022-09-25T18:54:43.147Z,13.20
2022-09-25T18:57:13.810Z,13.20
2022-09-25T18:59:42.116Z,13.20
2022-09-25T19:02:39.364Z,13.20
2022-09-25T19:05:09.080Z,13.20
2022-09-25T19:07:38.087Z,13.20
2022-09-25T19:10:09.580Z,13.20
2022-09-25T19:12:37.538Z,13.20
2022-09-25T19:15:06.172Z,13.20
2022-09-25T19:17:37.484Z,13.16
2022-09-25T19:20:07.032Z,13.10
2022-09-25T19:22:36.967Z,13.10
2022-09-25T19:25:06.017Z,13.10
2022-09-25T19:27:34.322Z,13.10
2022-09-25T19:30:02.003Z,13.10
2022-09-25T19:32:32.242Z,13.10
2022-09-25T19:35:00.508Z,13.10
2022-09-25T19:37:32.795Z,13.04
2022-09-25T19:40:19.617Z,13.00
2022-09-25T19:42:47.866Z,13.00
2022-09-25T19:45:17.142Z,13.00
2022-09-25T19:47:44.965Z,13.04
2022-09-25T19:50:13.115Z,13.10
2022-09-25T19:52:47.563Z,13.10
2022-09-25T19:55:18.493Z,13.10
2022-09-25T19:57:47.793Z,13.04
2022-09-25T20:00:20.366Z,13.00
2022-09-25T20:02:48.327Z,13.00
2022-09-25T20:05:17.827Z,13.00
2022-09-25T20:07:45.671Z,13.00
2022-09-25T20:10:14.075Z,13.00
2022-09-25T20:12:41.848Z,13.00
2022-09-25T20:15:10.359Z,13.00
2022-09-25T20:17:38.423Z,12.94
2022-09-25T20:20:08.095Z,12.90
2022-09-25T20:22:36.793Z,12.90
2022-09-25T20:25:05.415Z,12.90
2022-09-25T20:27:33.221Z,12.92
2022-09-25T20:30:02.285Z,13.00
2022-09-25T20:32:30.194Z,13.00
2022-09-25T20:34:58.642Z,13.00
2022-09-25T20:37:26.884Z,13.00
2022-09-25T20:39:55.151Z,13.00
2022-09-25T20:42:22.903Z,12.98
2022-09-25T20:44:51.807Z,12.90
2022-09-25T20:47:19.539Z,12.90
2022-09-25T20:49:48.527Z,12.90
2022-09-25T20:52:18.965Z,12.90
2022-09-25T20:54:47.313Z,12.90
2022-09-25T20:57:15.089Z,12.90
2022-09-25T20:59:43.004Z,12.90
2022-09-25T21:02:11.236Z,12.90
2022-09-25T21:04:39.529Z,12.90
2022-09-25T21:07:10.911Z,12.90
2022-09-25T21:09:40.999Z,12.90
2022-09-25T21:12:09.128Z,12.90
2022-09-25T21:14:39.148Z,12.90
2022-09-25T21:17:07.088Z,12.90
2022-09-25T21:19:37.508Z,12.98
2022-09-25T21:22:05.286Z,13.00
2022-09-25T21:24:33.170Z,12.90
2022-09-25T21:27:00.854Z,12.80
2022-09-25T21:29:28.689Z,12.80
2022-09-25T21:31:57.102Z,12.80
2022-09-25T21:34:24.762Z,12.80
2022-09-25T21:36:52.768Z,12.80
2022-09-25T21:39:21.349Z,12.80
2022-09-25T21:41:50.482Z,12.80
2022-09-25T21:44:20.695Z,12.80
2022-09-25T21:46:48.667Z,12.80
2022-09-25T21:49:20.389Z,12.80
2022-09-25T21:51:49.727Z,12.80
2022-09-25T21:54:18.268Z,12.80
2022-09-25T21:56:46.194Z,12.80
2022-09-25T21:59:14.758Z,12.70
2022-09-25T22:01:43.182Z,12.70
2022-09-25T22:04:14.361Z,12.70
2022-09-25T22:06:46.225Z,12.64
2022-09-25T22:09:20.134Z,12.60
2022-09-25T22:11:49.178Z,12.50
2022-09-25T22:14:20.747Z,12.50
2022-09-25T22:16:52.150Z,12.46
2022-09-25T22:19:25.071Z,12.40
2022-09-25T22:21:58.187Z,12.40
2022-09-25T22:24:27.615Z,12.40
2022-09-25T22:26:56.635Z,12.30
2022-09-25T22:29:26.669Z,12.30
2022-09-25T22:31:55.006Z,12.30
2022-09-25T22:34:27.238Z,12.30
2022-09-25T22:36:59.824Z,12.20
2022-09-25T22:39:30.345Z,12.20
2022-09-25T22:41:59.193Z,12.20
2022-09-25T22:44:27.346Z,12.12
2022-09-25T22:46:57.014Z,12.10
2022-09-25T22:49:24.999Z,12.10
2022-09-25T22:51:53.140Z,12.10
2022-09-25T22:54:23.432Z,12.10
2022-09-25T22:56:52.762Z,12.10
2022-09-25T22:59:20.517Z,12.02
2022-09-25T23:01:54.204Z,12.00
2022-09-25T23:04:25.007Z,12.00
2022-09-25T23:06:53.436Z,12.00
2022-09-25T23:09:27.145Z,11.96
2022-09-25T23:11:57.229Z,12.00
2022-09-25T23:14:30.655Z,11.90
2022-09-25T23:17:03.276Z,11.80
2022-09-25T23:19:31.238Z,11.80
2022-09-25T23:21:59.015Z,11.80
2022-09-25T23:24:27.035Z,11.80
2022-09-25T23:26:55.354Z,11.80
2022-09-25T23:29:23.874Z,11.80
2022-09-25T23:31:52.530Z,11.80
2022-09-25T23:34:21.293Z,11.80
2022-09-25T23:36:50.491Z,11.80
2022-09-25T23:39:20.874Z,11.76
2022-09-25T23:41:49.167Z,11.70
2022-09-25T23:44:17.413Z,11.70
2022-09-25T23:46:45.248Z,11.60
2022-09-25T23:49:14.377Z,11.50
2022-09-25T23:51:42.301Z,11.50
2022-09-25T23:54:11.187Z,11.50
2022-09-25T23:56:41.165Z,11.40
2022-09-25T23:59:13.901Z,11.40
